ECISR LESB-LEIB
Flight info
| Callsign | ECISR |
|---|---|
| Flight time | 0h 43m |
| Altitude | 1000 |
| Route | VFR |
| Aircraft | C172/L-SGR/B1 |
Departure
| Time | 2026-05-01 13:46 |
|---|---|
| Airport | Son Bonet Airfield (LESB) |
Arrival
| Time | 2026-05-01 14:30 |
|---|---|
| Airport | Ibiza Airport (LEIB) |
| Time | Latitude | Longitude | Altitude | Speed | Heading |
|---|---|---|---|---|---|
| 2026-05-01 13:40 | 39.60212 | 2.70596 | 137 ft | 0 kts | 316° |
| 2026-05-01 13:41 | 39.60213 | 2.70594 | 137 ft | 0 kts | 316° |
| 2026-05-01 13:43 | 39.60239 | 2.70567 | 137 ft | 10 kts | 309° |
| 2026-05-01 13:43 | 39.60207 | 2.70504 | 137 ft | 9 kts | 230° |
| 2026-05-01 13:43 | 39.60156 | 2.70513 | 137 ft | 9 kts | 178° |
| 2026-05-01 13:43 | 39.60105 | 2.70446 | 137 ft | 12 kts | 230° |
| 2026-05-01 13:44 | 39.60046 | 2.70350 | 137 ft | 14 kts | 230° |
| 2026-05-01 13:44 | 39.59970 | 2.70228 | 137 ft | 20 kts | 231° |
| 2026-05-01 13:44 | 39.59885 | 2.70091 | 137 ft | 16 kts | 231° |
| 2026-05-01 13:44 | 39.59825 | 2.69997 | 137 ft | 10 kts | 221° |
| 2026-05-01 13:45 | 39.59774 | 2.70026 | 137 ft | 11 kts | 142° |
| 2026-05-01 13:45 | 39.59798 | 2.70114 | 137 ft | 29 kts | 51° |
| 2026-05-01 13:45 | 39.60021 | 2.70472 | 219 ft | 58 kts | 52° |
| 2026-05-01 13:45 | 39.60258 | 2.70866 | 432 ft | 55 kts | 50° |
| 2026-05-01 13:46 | 39.60593 | 2.70710 | 555 ft | 76 kts | 282° |
| 2026-05-01 13:46 | 39.60387 | 2.70075 | 732 ft | 78 kts | 262° |
| 2026-05-01 13:46 | 39.60275 | 2.69378 | 887 ft | 84 kts | 253° |
| 2026-05-01 13:46 | 39.60087 | 2.68605 | 996 ft | 92 kts | 249° |
| 2026-05-01 13:47 | 39.59836 | 2.67748 | 1017 ft | 111 kts | 248° |
| 2026-05-01 13:47 | 39.59549 | 2.66788 | 1094 ft | 116 kts | 251° |
| 2026-05-01 13:47 | 39.59273 | 2.65772 | 1107 ft | 122 kts | 251° |
| 2026-05-01 13:47 | 39.59006 | 2.64683 | 1053 ft | 125 kts | 255° |
| 2026-05-01 13:48 | 39.58780 | 2.63637 | 1138 ft | 121 kts | 254° |
| 2026-05-01 13:48 | 39.58522 | 2.62584 | 1273 ft | 123 kts | 252° |
| 2026-05-01 13:48 | 39.58323 | 2.61549 | 1491 ft | 117 kts | 261° |
| 2026-05-01 13:48 | 39.58181 | 2.60499 | 1624 ft | 120 kts | 261° |
| 2026-05-01 13:49 | 39.58036 | 2.59435 | 1770 ft | 121 kts | 262° |
| 2026-05-01 13:49 | 39.57881 | 2.58346 | 1883 ft | 123 kts | 260° |
| 2026-05-01 13:49 | 39.57726 | 2.57238 | 1978 ft | 122 kts | 263° |
| 2026-05-01 13:49 | 39.57603 | 2.56163 | 2023 ft | 123 kts | 262° |
| 2026-05-01 13:50 | 39.57417 | 2.55050 | 1880 ft | 129 kts | 258° |
| 2026-05-01 13:50 | 39.57196 | 2.53941 | 1659 ft | 124 kts | 255° |
| 2026-05-01 13:50 | 39.56953 | 2.52895 | 1518 ft | 120 kts | 253° |
| 2026-05-01 13:50 | 39.56714 | 2.51819 | 1517 ft | 126 kts | 254° |
| 2026-05-01 13:51 | 39.56470 | 2.50727 | 1535 ft | 127 kts | 255° |
| 2026-05-01 13:51 | 39.56242 | 2.49619 | 1568 ft | 125 kts | 255° |
| 2026-05-01 13:51 | 39.56026 | 2.48516 | 1556 ft | 126 kts | 257° |
| 2026-05-01 13:51 | 39.55832 | 2.47406 | 1567 ft | 125 kts | 258° |
| 2026-05-01 13:52 | 39.55639 | 2.46303 | 1561 ft | 126 kts | 257° |
| 2026-05-01 13:52 | 39.55456 | 2.45185 | 1558 ft | 126 kts | 260° |
| 2026-05-01 13:52 | 39.55299 | 2.44074 | 1542 ft | 126 kts | 261° |
| 2026-05-01 13:52 | 39.55167 | 2.42947 | 1557 ft | 125 kts | 264° |
| 2026-05-01 13:53 | 39.55052 | 2.41814 | 1495 ft | 129 kts | 264° |
| 2026-05-01 13:53 | 39.54818 | 2.39547 | 1420 ft | 127 kts | 255° |
| 2026-05-01 13:53 | 39.54551 | 2.38458 | 1431 ft | 124 kts | 248° |
| 2026-05-01 13:54 | 39.54140 | 2.37466 | 1396 ft | 125 kts | 240° |
| 2026-05-01 13:54 | 39.53727 | 2.36510 | 1485 ft | 123 kts | 239° |
| 2026-05-01 13:54 | 39.53313 | 2.35577 | 1645 ft | 119 kts | 239° |
| 2026-05-01 13:54 | 39.52885 | 2.34660 | 1800 ft | 119 kts | 235° |
| 2026-05-01 13:55 | 39.52409 | 2.33769 | 1938 ft | 120 kts | 234° |
| 2026-05-01 13:55 | 39.51952 | 2.32902 | 2145 ft | 115 kts | 236° |
| 2026-05-01 13:55 | 39.51501 | 2.32071 | 2336 ft | 113 kts | 233° |
| 2026-05-01 13:55 | 39.51025 | 2.31258 | 2505 ft | 114 kts | 231° |
| 2026-05-01 13:56 | 39.50536 | 2.30468 | 2672 ft | 115 kts | 230° |
| 2026-05-01 13:56 | 39.50055 | 2.29614 | 2824 ft | 115 kts | 236° |
| 2026-05-01 13:56 | 39.49639 | 2.28746 | 2965 ft | 118 kts | 236° |
| 2026-05-01 13:56 | 39.49152 | 2.27937 | 3177 ft | 113 kts | 230° |
| 2026-05-01 13:57 | 39.48652 | 2.27114 | 3322 ft | 114 kts | 234° |
| 2026-05-01 13:57 | 39.48369 | 2.26559 | 3465 ft | 110 kts | 239° |
| 2026-05-01 13:57 | 39.47820 | 2.25490 | 3726 ft | 107 kts | 215° |
| 2026-05-01 13:57 | 39.47144 | 2.24829 | 3501 ft | 135 kts | 218° |
| 2026-05-01 13:58 | 39.46439 | 2.24055 | 3308 ft | 131 kts | 220° |
| 2026-05-01 13:58 | 39.45779 | 2.23335 | 3226 ft | 118 kts | 219° |
| 2026-05-01 13:58 | 39.45158 | 2.22693 | 3142 ft | 108 kts | 216° |
| 2026-05-01 13:58 | 39.44579 | 2.22110 | 3046 ft | 107 kts | 221° |
| 2026-05-01 13:59 | 39.44135 | 2.21317 | 2932 ft | 113 kts | 236° |
| 2026-05-01 13:59 | 39.43680 | 2.20449 | 2803 ft | 120 kts | 236° |
| 2026-05-01 13:59 | 39.43205 | 2.19534 | 2617 ft | 126 kts | 236° |
| 2026-05-01 13:59 | 39.42710 | 2.18579 | 2371 ft | 130 kts | 236° |
| 2026-05-01 14:00 | 39.42202 | 2.17595 | 2124 ft | 133 kts | 236° |
| 2026-05-01 14:00 | 39.41701 | 2.16620 | 2004 ft | 125 kts | 236° |
| 2026-05-01 14:00 | 39.41226 | 2.15691 | 1991 ft | 125 kts | 236° |
| 2026-05-01 14:00 | 39.40742 | 2.14743 | 1990 ft | 125 kts | 236° |
| 2026-05-01 14:01 | 39.40266 | 2.13813 | 1990 ft | 125 kts | 236° |
| 2026-05-01 14:01 | 39.39784 | 2.12870 | 1990 ft | 125 kts | 236° |
| 2026-05-01 14:01 | 39.39306 | 2.11935 | 1990 ft | 125 kts | 236° |
| 2026-05-01 14:01 | 39.38822 | 2.10988 | 1990 ft | 125 kts | 236° |
| 2026-05-01 14:02 | 39.38339 | 2.10044 | 1990 ft | 126 kts | 236° |
| 2026-05-01 14:02 | 39.37848 | 2.09085 | 1991 ft | 127 kts | 236° |
| 2026-05-01 14:02 | 39.37365 | 2.08141 | 1990 ft | 127 kts | 236° |
| 2026-05-01 14:02 | 39.36872 | 2.07178 | 1989 ft | 126 kts | 236° |
| 2026-05-01 14:03 | 39.36387 | 2.06232 | 1989 ft | 126 kts | 236° |
| 2026-05-01 14:03 | 39.35902 | 2.05286 | 1990 ft | 126 kts | 236° |
| 2026-05-01 14:03 | 39.35419 | 2.04343 | 1990 ft | 126 kts | 236° |
| 2026-05-01 14:03 | 39.34938 | 2.03403 | 1990 ft | 126 kts | 236° |
| 2026-05-01 14:04 | 39.34453 | 2.02459 | 1990 ft | 126 kts | 236° |
| 2026-05-01 14:04 | 39.33965 | 2.01509 | 1990 ft | 126 kts | 236° |
| 2026-05-01 14:04 | 39.33487 | 2.00575 | 1990 ft | 126 kts | 236° |
| 2026-05-01 14:04 | 39.33163 | 1.99941 | 1990 ft | 126 kts | 236° |
| 2026-05-01 14:05 | 39.32522 | 1.98689 | 1990 ft | 126 kts | 236° |
| 2026-05-01 14:05 | 39.32048 | 1.97735 | 1942 ft | 128 kts | 237° |
| 2026-05-01 14:05 | 39.31543 | 1.96775 | 1821 ft | 122 kts | 236° |
| 2026-05-01 14:05 | 39.31096 | 1.95929 | 1805 ft | 113 kts | 236° |
| 2026-05-01 14:06 | 39.30645 | 1.95069 | 1810 ft | 118 kts | 236° |
| 2026-05-01 14:06 | 39.30174 | 1.94170 | 1810 ft | 122 kts | 236° |
| 2026-05-01 14:06 | 39.29700 | 1.93267 | 1808 ft | 122 kts | 236° |
| 2026-05-01 14:06 | 39.29221 | 1.92355 | 1808 ft | 122 kts | 236° |
| 2026-05-01 14:07 | 39.28748 | 1.91453 | 1807 ft | 122 kts | 236° |
| 2026-05-01 14:07 | 39.28267 | 1.90537 | 1807 ft | 122 kts | 236° |
| 2026-05-01 14:07 | 39.27790 | 1.89630 | 1807 ft | 122 kts | 236° |
| 2026-05-01 14:08 | 39.26836 | 1.87814 | 1807 ft | 122 kts | 236° |
| 2026-05-01 14:08 | 39.26355 | 1.86899 | 1807 ft | 122 kts | 236° |
| 2026-05-01 14:08 | 39.25877 | 1.85991 | 1807 ft | 122 kts | 236° |
| 2026-05-01 14:08 | 39.25397 | 1.85077 | 1807 ft | 122 kts | 236° |
| 2026-05-01 14:09 | 39.24916 | 1.84161 | 1807 ft | 122 kts | 236° |
| 2026-05-01 14:09 | 39.24440 | 1.83257 | 1807 ft | 122 kts | 236° |
| 2026-05-01 14:09 | 39.23956 | 1.82337 | 1807 ft | 122 kts | 236° |
| 2026-05-01 14:09 | 39.23484 | 1.81439 | 1807 ft | 122 kts | 236° |
| 2026-05-01 14:10 | 39.23006 | 1.80532 | 1807 ft | 122 kts | 236° |
| 2026-05-01 14:10 | 39.22523 | 1.79613 | 1807 ft | 122 kts | 236° |
| 2026-05-01 14:10 | 39.22048 | 1.78711 | 1807 ft | 122 kts | 236° |
| 2026-05-01 14:10 | 39.21571 | 1.77804 | 1807 ft | 122 kts | 236° |
| 2026-05-01 14:11 | 39.21092 | 1.76895 | 1807 ft | 122 kts | 236° |
| 2026-05-01 14:11 | 39.20138 | 1.75083 | 1807 ft | 122 kts | 236° |
| 2026-05-01 14:11 | 39.19654 | 1.74163 | 1807 ft | 122 kts | 236° |
| 2026-05-01 14:12 | 39.19177 | 1.73259 | 1807 ft | 122 kts | 236° |
| 2026-05-01 14:12 | 39.18701 | 1.72355 | 1807 ft | 122 kts | 236° |
| 2026-05-01 14:12 | 39.18225 | 1.71451 | 1807 ft | 122 kts | 236° |
| 2026-05-01 14:12 | 39.17748 | 1.70546 | 1807 ft | 122 kts | 236° |
| 2026-05-01 14:13 | 39.17268 | 1.69636 | 1807 ft | 122 kts | 236° |
| 2026-05-01 14:13 | 39.16949 | 1.69029 | 1807 ft | 122 kts | 236° |
| 2026-05-01 14:13 | 39.16312 | 1.67822 | 1807 ft | 122 kts | 236° |
| 2026-05-01 14:13 | 39.15831 | 1.66910 | 1807 ft | 122 kts | 236° |
| 2026-05-01 14:14 | 39.15353 | 1.66003 | 1807 ft | 122 kts | 236° |
| 2026-05-01 14:14 | 39.14875 | 1.65097 | 1807 ft | 122 kts | 236° |
| 2026-05-01 14:14 | 39.14398 | 1.64193 | 1807 ft | 122 kts | 236° |
| 2026-05-01 14:14 | 39.13918 | 1.63282 | 1807 ft | 122 kts | 236° |
| 2026-05-01 14:15 | 39.13440 | 1.62376 | 1807 ft | 122 kts | 236° |
| 2026-05-01 14:15 | 39.12960 | 1.61467 | 1807 ft | 122 kts | 236° |
| 2026-05-01 14:15 | 39.12480 | 1.60558 | 1807 ft | 122 kts | 236° |
| 2026-05-01 14:15 | 39.12001 | 1.59650 | 1807 ft | 122 kts | 236° |
| 2026-05-01 14:16 | 39.11523 | 1.58745 | 1807 ft | 122 kts | 236° |
| 2026-05-01 14:16 | 39.11039 | 1.57828 | 1807 ft | 122 kts | 236° |
| 2026-05-01 14:16 | 39.10562 | 1.56926 | 1807 ft | 122 kts | 236° |
| 2026-05-01 14:16 | 39.10083 | 1.56019 | 1807 ft | 122 kts | 236° |
| 2026-05-01 14:17 | 39.09601 | 1.55106 | 1807 ft | 122 kts | 236° |
| 2026-05-01 14:17 | 39.09164 | 1.54169 | 1807 ft | 122 kts | 239° |
| 2026-05-01 14:17 | 39.08734 | 1.53221 | 1807 ft | 122 kts | 240° |
| 2026-05-01 14:17 | 39.08305 | 1.52271 | 1807 ft | 122 kts | 240° |
| 2026-05-01 14:18 | 39.07875 | 1.51322 | 1807 ft | 122 kts | 240° |
| 2026-05-01 14:18 | 39.07449 | 1.50381 | 1807 ft | 122 kts | 240° |
| 2026-05-01 14:18 | 39.07020 | 1.49434 | 1807 ft | 122 kts | 240° |
| 2026-05-01 14:18 | 39.06733 | 1.48800 | 1807 ft | 122 kts | 240° |
| 2026-05-01 14:19 | 39.06162 | 1.47540 | 1807 ft | 122 kts | 240° |
| 2026-05-01 14:19 | 39.05730 | 1.46588 | 1807 ft | 122 kts | 240° |
| 2026-05-01 14:19 | 39.05303 | 1.45645 | 1807 ft | 122 kts | 240° |
| 2026-05-01 14:19 | 39.04873 | 1.44697 | 1807 ft | 122 kts | 240° |
| 2026-05-01 14:20 | 39.04446 | 1.43754 | 1807 ft | 122 kts | 240° |
| 2026-05-01 14:20 | 39.03585 | 1.41855 | 1807 ft | 122 kts | 240° |
| 2026-05-01 14:20 | 39.03157 | 1.40913 | 1807 ft | 122 kts | 240° |
| 2026-05-01 14:21 | 39.02726 | 1.39961 | 1807 ft | 122 kts | 240° |
| 2026-05-01 14:21 | 39.02300 | 1.39022 | 1807 ft | 122 kts | 240° |
| 2026-05-01 14:21 | 39.01868 | 1.38070 | 1807 ft | 122 kts | 240° |
| 2026-05-01 14:22 | 39.01013 | 1.36187 | 1807 ft | 122 kts | 240° |
| 2026-05-01 14:22 | 39.00580 | 1.35233 | 1807 ft | 122 kts | 240° |
| 2026-05-01 14:22 | 39.00137 | 1.34302 | 1807 ft | 122 kts | 234° |
| 2026-05-01 14:22 | 38.99656 | 1.33394 | 1807 ft | 122 kts | 235° |
| 2026-05-01 14:23 | 38.99163 | 1.32510 | 1807 ft | 122 kts | 231° |
| 2026-05-01 14:23 | 38.98533 | 1.31776 | 1808 ft | 122 kts | 210° |
| 2026-05-01 14:23 | 38.97727 | 1.31581 | 1805 ft | 122 kts | 167° |
| 2026-05-01 14:23 | 38.96930 | 1.31989 | 1809 ft | 122 kts | 157° |
| 2026-05-01 14:24 | 38.96158 | 1.32413 | 1808 ft | 122 kts | 156° |
| 2026-05-01 14:24 | 38.95376 | 1.32840 | 1807 ft | 122 kts | 156° |
| 2026-05-01 14:24 | 38.94588 | 1.33271 | 1807 ft | 122 kts | 156° |
| 2026-05-01 14:24 | 38.93804 | 1.33699 | 1807 ft | 122 kts | 156° |
| 2026-05-01 14:25 | 38.93022 | 1.34129 | 1808 ft | 122 kts | 156° |
| 2026-05-01 14:25 | 38.92239 | 1.34559 | 1802 ft | 123 kts | 157° |
| 2026-05-01 14:25 | 38.91447 | 1.34982 | 1717 ft | 120 kts | 158° |
| 2026-05-01 14:25 | 38.90682 | 1.35380 | 1499 ft | 119 kts | 159° |
| 2026-05-01 14:26 | 38.89916 | 1.35543 | 1381 ft | 109 kts | 194° |
| 2026-05-01 14:26 | 38.88863 | 1.34094 | 1371 ft | 115 kts | 238° |
| 2026-05-01 14:26 | 38.88443 | 1.33231 | 1337 ft | 117 kts | 235° |
| 2026-05-01 14:27 | 38.87974 | 1.32361 | 1310 ft | 118 kts | 232° |
| 2026-05-01 14:27 | 38.87323 | 1.31875 | 1220 ft | 100 kts | 189° |
| 2026-05-01 14:27 | 38.86683 | 1.31975 | 1103 ft | 92 kts | 163° |
| 2026-05-01 14:28 | 38.85469 | 1.32601 | 742 ft | 92 kts | 131° |
| 2026-05-01 14:28 | 38.85513 | 1.33274 | 635 ft | 77 kts | 54° |
| 2026-05-01 14:28 | 38.85809 | 1.33757 | 566 ft | 62 kts | 51° |
| 2026-05-01 14:28 | 38.86033 | 1.34260 | 497 ft | 65 kts | 64° |
| 2026-05-01 14:29 | 38.86244 | 1.34792 | 333 ft | 64 kts | 64° |
| 2026-05-01 14:29 | 38.86455 | 1.35301 | 208 ft | 67 kts | 62° |
| 2026-05-01 14:30 | 38.86995 | 1.36614 | 23 ft | 44 kts | 61° |
| 2026-05-01 14:30 | 38.87141 | 1.36968 | 23 ft | 43 kts | 61° |
| 2026-05-01 14:30 | 38.87281 | 1.37304 | 23 ft | 38 kts | 54° |
| 2026-05-01 14:31 | 38.87527 | 1.37555 | 23 ft | 0 kts | 32° |
| 2026-05-01 14:31 | 38.87530 | 1.37558 | 23 ft | 0 kts | 32° |
| 2026-05-01 14:32 | 38.87533 | 1.37560 | 23 ft | 3 kts | 31° |
| 2026-05-01 14:32 | 38.87559 | 1.37569 | 23 ft | 9 kts | 348° |
| 2026-05-01 14:32 | 38.87682 | 1.37486 | 23 ft | 16 kts | 332° |
| 2026-05-01 14:32 | 38.87716 | 1.37487 | 23 ft | 3 kts | 58° |
| 2026-05-01 14:33 | 38.87736 | 1.37536 | 23 ft | 11 kts | 61° |
| 2026-05-01 14:33 | 38.87719 | 1.37590 | 23 ft | 6 kts | 46° |
| 2026-05-01 14:33 | 38.87722 | 1.37597 | 23 ft | 0 kts | 59° |